Weather at Hilliard Landing Area Airport [CLOSED]

Public forecast

Using degrees Fahrenheit for public forecast. Weather courtesy of forecast.io.

Closest aviation weather report (METAR) to Hilliard Landing Area Airport

Closest report is Dallas Fort Worth International Airport, 6.8 nm (12.5 km) SSE.

2024/05/30 21:11 (retrieved 26 minutes ago)

KDFW 302111Z VRB03KT 10SM FEW033 SCT090 BKN170 OVC250 21/18 A2987 RMK AO2 LTG DSNT S TSE52 TS MOVD E CBMAM OHD-SE MOV E P0000 T02060183

Closest aviation forecast (TAF) to Hilliard Landing Area Airport

Closest forecast is Dallas Fort Worth International Airport, 6.8 nm (12.5 km) SSE.

2024/05/30 21:03 Ammendment (retrieved 34 minutes ago)

TAF AMD KDFW 302059Z 3021/3124 06012KT P6SM VCSH BKN040 OVC090 FM310000 12008KT P6SM BKN025 FM310500 15008KT P6SM VCTS OVC015CB TEMPO 3106/3110 27025G35KT 2SM +TSRA BKN010CB FM311000 13008KT 6SM -SHRA BR OVC025 FM311600 21007KT P6SM OVC035